Time;durP1;ratioP1;P1;durP2;ratioP2;P2;SDS_P1;SDS_P2;PMS_P1;PMS_P2;Temp;Humidity;BMP_temperature;BMP_pressure;BME280_temperature;BME280_humidity;BME280_pressure;Samples;Min_cycle;Max_cycle;Signal;HPM_P1;HPM_P2
2022/03/04 00:01:43;;;;;;;22.73;12.85;;;5.70;96.70;;;;;;5162648;22;20004;-64
2022/03/04 00:03:44;;;;;;;22.20;12.75;;;5.80;97.50;;;;;;5163641;22;20012;-64
2022/03/04 00:05:45;;;;;;;23.10;13.32;;;5.60;97.10;;;;;;5159820;23;20097;-64
2022/03/04 00:07:45;;;;;;;22.55;12.80;;;5.60;97.00;;;;;;5163268;22;20370;-65
2022/03/04 00:09:46;;;;;;;23.98;13.95;;;5.50;97.70;;;;;;5163384;22;20023;-64
2022/03/04 00:11:50;;;;;;;21.23;12.70;;;5.40;98.50;;;;;;5160142;23;20005;-64
2022/03/04 00:13:50;;;;;;;19.60;12.68;;;5.40;99.90;;;;;;5162922;22;20397;-64
2022/03/04 00:15:51;;;;;;;24.00;13.43;;;5.40;99.00;;;;;;5161377;22;20020;-64
2022/03/04 00:17:52;;;;;;;24.52;13.82;;;5.40;98.40;;;;;;5162575;22;20009;-64
2022/03/04 00:19:52;;;;;;;24.23;13.63;;;5.30;98.30;;;;;;5162460;22;20019;-64
2022/03/04 00:21:53;;;;;;;24.48;14.27;;;5.20;98.20;;;;;;5161819;22;20011;-64
2022/03/04 00:23:53;;;;;;;23.85;13.85;;;5.10;98.70;;;;;;5162400;22;20031;-64
2022/03/04 00:25:54;;;;;;;23.15;13.98;;;5.00;99.10;;;;;;5161780;22;20194;-64
2022/03/04 00:27:55;;;;;;;27.50;14.07;;;4.90;99.50;;;;;;5162727;22;20436;-64
2022/03/04 00:29:55;;;;;;;22.75;13.50;;;4.80;99.90;;;;;;5162118;22;19997;-65
2022/03/04 00:31:56;;;;;;;23.67;13.52;;;4.80;99.90;;;;;;5161988;22;20039;-65
2022/03/04 00:33:56;;;;;;;25.58;15.10;;;4.60;99.90;;;;;;5162893;22;20506;-65
2022/03/04 00:35:57;;;;;;;25.58;14.15;;;4.40;99.90;;;;;;5162214;22;20154;-65
2022/03/04 00:37:57;;;;;;;25.10;14.73;;;4.50;99.90;;;;;;5163115;22;20024;-64
2022/03/04 00:39:58;;;;;;;22.95;13.27;;;4.50;99.90;;;;;;5162831;22;20095;-64
2022/03/04 00:41:59;;;;;;;21.98;12.95;;;4.60;99.90;;;;;;5162208;22;20051;-65
2022/03/04 00:44:00;;;;;;;25.80;14.40;;;4.60;99.90;;;;;;5164545;22;20458;-65
2022/03/04 00:46:00;;;;;;;23.98;13.80;;;4.50;99.90;;;;;;5163150;22;20020;-65
2022/03/04 00:48:01;;;;;;;24.92;13.52;;;4.60;99.90;;;;;;5164123;22;20563;-64
2022/03/04 00:50:03;;;;;;;27.17;13.98;;;4.60;99.90;;;;;;5164476;22;20066;-67
2022/03/04 00:52:04;;;;;;;25.37;14.10;;;4.60;99.90;;;;;;5163185;22;20012;-64
2022/03/04 00:54:04;;;;;;;24.42;13.73;;;4.50;99.90;;;;;;5163495;22;20012;-64
2022/03/04 00:56:10;;;;;;;25.23;14.50;;;4.60;99.90;;;;;;5164637;22;20134;-65
2022/03/04 00:58:10;;;;;;;26.25;14.02;;;4.50;99.90;;;;;;5165063;22;20019;-64
2022/03/04 01:00:11;;;;;;;25.17;14.52;;;4.40;99.90;;;;;;5159503;23;20036;-65
2022/03/04 01:02:12;;;;;;;29.23;15.15;;;4.30;99.90;;;;;;5164295;22;20074;-64
2022/03/04 01:04:12;;;;;;;24.40;14.07;;;4.30;99.90;;;;;;5164189;22;20095;-65
2022/03/04 01:06:13;;;;;;;26.63;15.20;;;4.20;99.90;;;;;;5160981;22;20079;-64
2022/03/04 01:08:14;;;;;;;26.50;14.52;;;4.10;99.90;;;;;;5161675;22;20047;-64
2022/03/04 01:10:14;;;;;;;25.48;14.77;;;4.10;99.90;;;;;;5161048;22;20675;-64
2022/03/04 01:12:15;;;;;;;22.80;13.48;;;4.10;99.90;;;;;;5163107;22;20095;-64
2022/03/04 01:14:15;;;;;;;25.15;14.57;;;4.10;99.90;;;;;;5163600;22;20035;-64
2022/03/04 01:16:16;;;;;;;26.30;14.30;;;4.20;99.90;;;;;;5163166;22;20015;-64
2022/03/04 01:18:17;;;;;;;25.38;14.35;;;4.20;99.90;;;;;;5164441;22;20027;-64
2022/03/04 01:20:17;;;;;;;21.35;13.45;;;4.10;99.90;;;;;;5162309;22;20515;-65
2022/03/04 01:22:18;;;;;;;25.77;14.55;;;4.20;99.90;;;;;;5163619;22;20028;-64
2022/03/04 01:24:19;;;;;;;25.30;14.68;;;4.30;99.90;;;;;;5163957;22;20012;-64
2022/03/04 01:26:20;;;;;;;24.33;14.85;;;4.30;99.90;;;;;;5163213;22;20013;-64
2022/03/04 01:28:21;;;;;;;26.38;15.40;;;4.20;99.90;;;;;;5163761;22;20008;-64
2022/03/04 01:30:22;;;;;;;28.33;15.23;;;4.10;99.90;;;;;;5160712;23;20015;-64
2022/03/04 01:32:22;;;;;;;23.00;13.80;;;4.20;99.90;;;;;;5163904;22;20016;-64
2022/03/04 01:34:23;;;;;;;25.77;14.30;;;4.20;99.90;;;;;;5163871;22;20027;-64
2022/03/04 01:36:24;;;;;;;25.40;14.52;;;4.10;99.90;;;;;;5162710;22;20122;-64
2022/03/04 01:38:24;;;;;;;30.73;15.73;;;4.00;99.90;;;;;;5163473;22;20512;-64
2022/03/04 01:40:25;;;;;;;24.92;15.38;;;3.90;99.90;;;;;;5162547;22;20019;-64
2022/03/04 01:42:26;;;;;;;24.45;14.57;;;3.90;99.90;;;;;;5161560;23;20012;-64
2022/03/04 01:44:27;;;;;;;27.48;15.23;;;3.90;99.90;;;;;;5163128;22;20027;-65
2022/03/04 01:46:30;;;;;;;25.83;15.38;;;3.90;99.90;;;;;;5162954;22;20016;-65
2022/03/04 01:48:30;;;;;;;24.40;14.18;;;3.80;99.90;;;;;;5163735;22;20019;-64
2022/03/04 01:50:31;;;;;;;26.23;14.98;;;3.90;99.90;;;;;;5162744;22;20016;-64
2022/03/04 01:52:32;;;;;;;27.00;15.70;;;3.90;99.90;;;;;;5163845;22;20089;-64
2022/03/04 01:54:33;;;;;;;26.83;14.15;;;3.90;99.90;;;;;;5162709;22;20016;-65
2022/03/04 01:56:34;;;;;;;24.23;14.73;;;3.90;99.90;;;;;;5162216;22;20043;-64
2022/03/04 01:58:35;;;;;;;23.55;14.15;;;4.00;99.90;;;;;;5163024;22;20008;-65
2022/03/04 02:00:36;;;;;;;23.67;13.93;;;4.00;99.90;;;;;;5162571;22;20031;-64
2022/03/04 02:02:36;;;;;;;26.70;14.85;;;4.00;99.90;;;;;;5164637;22;20004;-64
2022/03/04 02:04:37;;;;;;;25.05;14.60;;;4.10;99.90;;;;;;5164538;22;20008;-65
2022/03/04 02:06:38;;;;;;;27.55;14.98;;;4.00;99.90;;;;;;5163469;22;20459;-64
2022/03/04 02:08:38;;;;;;;28.55;15.20;;;4.00;99.90;;;;;;5164606;22;20004;-64
2022/03/04 02:10:39;;;;;;;27.17;14.82;;;3.80;99.90;;;;;;5163559;22;20008;-65
2022/03/04 02:12:40;;;;;;;26.35;15.82;;;3.70;99.90;;;;;;5164570;22;20019;-64
2022/03/04 02:14:40;;;;;;;25.65;15.23;;;3.60;99.90;;;;;;5163391;22;20133;-64
2022/03/04 02:16:43;;;;;;;28.00;15.48;;;3.60;99.90;;;;;;5163405;22;20035;-64
2022/03/04 02:18:44;;;;;;;27.58;15.02;;;3.50;99.90;;;;;;5164161;22;20009;-64
2022/03/04 02:20:48;;;;;;;26.42;14.88;;;3.50;99.90;;;;;;5163182;22;20131;-64
2022/03/04 02:22:50;;;;;;;27.38;15.68;;;3.50;99.90;;;;;;5163872;22;20364;-65
2022/03/04 02:24:51;;;;;;;26.77;15.07;;;3.50;99.90;;;;;;5163463;22;20012;-64
2022/03/04 02:26:52;;;;;;;25.52;15.32;;;3.60;99.90;;;;;;5162717;22;20076;-64
2022/03/04 02:28:53;;;;;;;30.33;15.10;;;3.60;99.90;;;;;;5163638;22;20308;-64
2022/03/04 02:30:54;;;;;;;27.67;15.23;;;3.50;99.90;;;;;;5162615;22;20379;-64
2022/03/04 02:32:55;;;;;;;23.65;13.50;;;3.50;99.90;;;;;;5160185;23;20031;-64
2022/03/04 02:34:55;;;;;;;26.67;14.50;;;3.60;99.90;;;;;;5163838;22;20020;-64
2022/03/04 02:36:56;;;;;;;28.10;15.05;;;3.60;99.90;;;;;;5162174;22;20467;-64
2022/03/04 02:38:57;;;;;;;28.33;15.07;;;3.60;99.90;;;;;;5163582;22;20008;-64
2022/03/04 02:40:57;;;;;;;30.98;15.52;;;3.50;99.90;;;;;;5161468;22;20012;-65
2022/03/04 02:42:58;;;;;;;26.80;15.30;;;3.40;99.90;;;;;;5163289;22;20067;-65
2022/03/04 02:44:59;;;;;;;33.50;16.67;;;3.40;99.90;;;;;;5162970;22;20073;-64
2022/03/04 02:46:59;;;;;;;26.55;15.55;;;3.30;99.90;;;;;;5162072;22;20008;-64
2022/03/04 02:49:01;;;;;;;25.83;14.85;;;3.20;99.90;;;;;;5163220;22;20336;-65
2022/03/04 02:51:01;;;;;;;27.40;14.57;;;3.30;99.90;;;;;;5162339;22;20012;-64
2022/03/04 02:53:02;;;;;;;26.90;15.25;;;3.40;99.90;;;;;;5162631;22;20016;-64
2022/03/04 02:55:03;;;;;;;29.88;16.42;;;3.30;99.90;;;;;;5162948;22;20023;-65
2022/03/04 02:57:03;;;;;;;26.73;14.40;;;3.40;99.90;;;;;;5161933;22;20454;-65
2022/03/04 02:59:04;;;;;;;23.10;13.32;;;3.40;99.90;;;;;;5162895;22;20016;-64
2022/03/04 03:01:05;;;;;;;26.80;14.68;;;3.50;99.90;;;;;;5162153;22;19996;-64
2022/03/04 03:03:06;;;;;;;25.83;14.70;;;3.60;99.90;;;;;;5162999;22;20008;-64
2022/03/04 03:05:07;;;;;;;27.15;14.60;;;3.60;99.90;;;;;;5161561;22;20015;-65
2022/03/04 03:07:08;;;;;;;26.10;13.77;;;3.70;99.90;;;;;;5162651;22;20142;-64
2022/03/04 03:09:09;;;;;;;24.08;14.57;;;3.70;99.90;;;;;;5163790;22;20000;-65
2022/03/04 03:11:09;;;;;;;26.38;15.00;;;3.80;99.90;;;;;;5162900;22;20004;-64
2022/03/04 03:13:10;;;;;;;26.10;15.02;;;3.80;99.90;;;;;;5163982;22;20004;-65
2022/03/04 03:15:11;;;;;;;26.55;14.57;;;3.60;99.90;;;;;;5162517;22;20016;-66
2022/03/04 03:17:12;;;;;;;27.80;15.10;;;3.60;99.90;;;;;;5164001;22;20089;-64
2022/03/04 03:19:13;;;;;;;26.08;14.50;;;3.60;99.90;;;;;;5163626;22;20008;-64
2022/03/04 03:21:14;;;;;;;29.40;16.10;;;3.60;99.90;;;;;;5162754;22;20448;-64
2022/03/04 03:23:15;;;;;;;28.88;16.70;;;3.30;99.90;;;;;;5163218;22;20024;-64
2022/03/04 03:25:16;;;;;;;28.60;15.25;;;3.20;99.90;;;;;;5162387;22;20019;-64
2022/03/04 03:27:16;;;;;;;28.15;16.15;;;3.20;99.90;;;;;;5163122;22;20023;-64
2022/03/04 03:29:17;;;;;;;29.60;15.98;;;3.00;99.90;;;;;;5160844;23;20016;-65
2022/03/04 03:31:17;;;;;;;28.45;15.38;;;3.00;99.90;;;;;;5162649;22;20016;-64
2022/03/04 03:33:18;;;;;;;30.98;16.52;;;2.80;99.90;;;;;;5163253;22;20419;-64
2022/03/04 03:35:19;;;;;;;30.50;16.80;;;2.70;99.90;;;;;;5161846;22;20089;-64
2022/03/04 03:37:19;;;;;;;33.28;16.27;;;2.70;99.90;;;;;;5163111;22;20420;-64
2022/03/04 03:39:20;;;;;;;26.33;15.38;;;2.70;99.90;;;;;;5163216;22;20004;-64
2022/03/04 03:41:20;;;;;;;28.52;15.07;;;2.60;99.90;;;;;;5162466;22;20031;-64
2022/03/04 03:43:21;;;;;;;29.35;15.80;;;2.60;99.90;;;;;;5162700;22;20019;-64
2022/03/04 03:45:21;;;;;;;24.73;15.02;;;2.70;99.90;;;;;;5161702;22;21960;-64
2022/03/04 03:47:22;;;;;;;29.00;15.82;;;2.60;99.90;;;;;;5162667;22;20039;-64
2022/03/04 03:49:23;;;;;;;29.15;16.13;;;2.50;99.90;;;;;;5163544;22;20444;-64
2022/03/04 03:51:24;;;;;;;28.65;16.30;;;2.50;99.90;;;;;;5162025;22;20008;-64
2022/03/04 03:53:24;;;;;;;29.25;16.73;;;2.40;99.90;;;;;;5162894;22;20023;-64
2022/03/04 03:55:25;;;;;;;33.35;16.63;;;2.30;99.90;;;;;;5161250;22;20098;-64
2022/03/04 03:57:25;;;;;;;30.85;17.15;;;2.30;99.90;;;;;;5162577;22;20012;-64
2022/03/04 03:59:26;;;;;;;30.88;16.45;;;2.30;99.90;;;;;;5162393;22;20391;-64
2022/03/04 04:01:26;;;;;;;33.50;17.23;;;2.20;99.90;;;;;;5161759;22;20004;-64
2022/03/04 04:03:28;;;;;;;34.80;17.27;;;2.20;99.90;;;;;;5162717;22;20119;-64
2022/03/04 04:05:28;;;;;;;31.20;16.58;;;2.20;99.90;;;;;;5161097;22;20095;-65
2022/03/04 04:07:29;;;;;;;34.83;17.83;;;2.20;99.90;;;;;;5162725;22;20067;-65
2022/03/04 04:09:29;;;;;;;33.65;17.08;;;2.10;99.90;;;;;;5162832;22;20035;-65
2022/03/04 04:11:32;;;;;;;36.20;17.40;;;2.10;99.90;;;;;;5161657;22;20066;-64
2022/03/04 04:13:33;;;;;;;35.25;18.17;;;2.10;99.90;;;;;;5162709;22;20576;-64
2022/03/04 04:15:34;;;;;;;36.22;19.05;;;2.00;99.90;;;;;;5161453;22;20013;-64
2022/03/04 04:17:35;;;;;;;33.35;16.98;;;1.90;99.90;;;;;;5162891;22;20091;-64
2022/03/04 04:19:35;;;;;;;33.15;17.17;;;1.90;99.90;;;;;;5164398;22;20008;-64
2022/03/04 04:21:36;;;;;;;34.55;17.27;;;1.80;99.90;;;;;;5162798;22;20001;-64
2022/03/04 04:23:36;;;;;;;36.40;17.55;;;1.80;99.90;;;;;;5164269;22;20031;-64
2022/03/04 04:25:37;;;;;;;33.47;18.15;;;1.80;99.90;;;;;;5163613;22;20059;-64
2022/03/04 04:27:38;;;;;;;32.70;17.95;;;1.80;99.90;;;;;;5165711;22;20450;-65
2022/03/04 04:29:38;;;;;;;28.23;16.42;;;1.70;99.90;;;;;;5165284;22;20379;-64
2022/03/04 04:31:40;;;;;;;31.25;15.93;;;1.80;99.90;;;;;;5163182;22;20004;-65
2022/03/04 04:33:40;;;;;;;33.70;16.60;;;1.90;99.90;;;;;;5165420;22;20008;-64
2022/03/04 04:35:41;;;;;;;36.55;17.55;;;2.00;99.90;;;;;;5163884;22;20012;-64
2022/03/04 04:37:42;;;;;;;31.27;16.55;;;1.80;99.90;;;;;;5165083;22;20008;-65
2022/03/04 04:39:42;;;;;;;30.55;16.60;;;1.80;99.90;;;;;;5165414;22;20008;-64
2022/03/04 04:41:44;;;;;;;29.92;16.55;;;1.90;99.90;;;;;;5164109;22;20095;-65
2022/03/04 04:43:45;;;;;;;35.72;17.90;;;2.00;99.90;;;;;;5165235;22;20015;-64
2022/03/04 04:45:46;;;;;;;33.13;17.48;;;1.90;99.90;;;;;;5163802;22;20015;-64
2022/03/04 04:47:47;;;;;;;30.70;15.85;;;1.90;99.90;;;;;;5164646;22;20018;-65
2022/03/04 04:49:48;;;;;;;30.25;16.75;;;1.90;99.90;;;;;;5163799;22;20485;-65
2022/03/04 04:51:49;;;;;;;30.58;16.23;;;1.90;99.90;;;;;;5163686;22;20014;-64
2022/03/04 04:53:50;;;;;;;29.98;16.63;;;1.80;99.90;;;;;;5164211;22;20436;-65
2022/03/04 04:55:51;;;;;;;28.05;15.55;;;1.90;99.90;;;;;;5162894;22;20003;-65
2022/03/04 04:57:52;;;;;;;29.58;15.80;;;2.00;99.90;;;;;;5163958;22;20027;-65
2022/03/04 04:59:52;;;;;;;30.45;16.15;;;2.00;99.90;;;;;;5164337;22;20458;-65
2022/03/04 05:01:53;;;;;;;31.33;17.27;;;2.00;99.90;;;;;;5162531;22;20004;-64
2022/03/04 05:03:53;;;;;;;32.13;17.42;;;1.90;99.90;;;;;;5165661;22;20012;-63
2022/03/04 05:05:56;;;;;;;32.42;17.23;;;1.90;99.90;;;;;;5163507;22;20015;-64
2022/03/04 05:07:56;;;;;;;31.48;17.02;;;1.90;99.90;;;;;;5164509;22;20004;-64
2022/03/04 05:09:57;;;;;;;34.70;18.08;;;1.90;99.90;;;;;;5164913;22;20151;-64
2022/03/04 05:11:57;;;;;;;30.98;17.80;;;1.80;99.90;;;;;;5161572;23;20329;-65
2022/03/04 05:13:58;;;;;;;31.77;17.20;;;1.80;99.90;;;;;;5164016;22;20023;-64
2022/03/04 05:15:59;;;;;;;29.38;16.45;;;1.90;99.90;;;;;;5162763;22;20010;-65
2022/03/04 05:17:59;;;;;;;33.28;16.83;;;2.00;99.90;;;;;;5163619;22;20016;-66
2022/03/04 05:20:00;;;;;;;30.15;16.38;;;2.00;99.90;;;;;;5164304;22;20004;-66
2022/03/04 05:22:00;;;;;;;33.28;16.90;;;2.10;99.90;;;;;;5162893;22;20329;-65
2022/03/04 05:24:02;;;;;;;33.58;17.77;;;2.00;99.90;;;;;;5161492;23;20020;-65
2022/03/04 05:26:03;;;;;;;36.23;17.37;;;2.00;99.90;;;;;;5160178;22;20444;-65
2022/03/04 05:28:04;;;;;;;30.73;16.42;;;2.00;99.90;;;;;;5161650;22;20020;-65
2022/03/04 05:30:05;;;;;;;31.88;16.48;;;2.10;99.90;;;;;;5161086;22;20051;-65
2022/03/04 05:32:07;;;;;;;31.45;17.35;;;2.00;99.90;;;;;;5161869;22;20010;-65
2022/03/04 05:34:08;;;;;;;31.08;17.05;;;2.00;99.90;;;;;;5161670;22;20042;-66
2022/03/04 05:36:09;;;;;;;36.42;17.85;;;2.10;99.90;;;;;;5162145;22;20083;-66
2022/03/04 05:38:09;;;;;;;37.13;17.40;;;2.10;99.90;;;;;;5162984;22;20004;-65
2022/03/04 05:40:11;;;;;;;29.73;17.33;;;2.10;99.90;;;;;;5162457;22;20066;-66
2022/03/04 05:42:11;;;;;;;27.77;16.00;;;2.20;99.90;;;;;;5163646;22;20004;-65
2022/03/04 05:44:12;;;;;;;29.45;15.85;;;2.30;99.90;;;;;;5163165;22;20327;-65
2022/03/04 05:46:13;;;;;;;36.88;16.95;;;2.30;99.90;;;;;;5158863;23;20407;-65
2022/03/04 05:48:14;;;;;;;30.67;17.08;;;2.30;99.90;;;;;;5163197;22;20008;-65
2022/03/04 05:50:15;;;;;;;27.83;15.60;;;2.40;99.90;;;;;;5162086;22;20076;-65
2022/03/04 05:52:16;;;;;;;28.48;15.57;;;2.40;99.90;;;;;;5162837;22;20012;-65
2022/03/04 05:54:16;;;;;;;28.15;14.98;;;2.50;99.90;;;;;;5162627;22;20027;-65
2022/03/04 05:56:18;;;;;;;28.15;14.50;;;2.50;99.90;;;;;;5161719;22;20004;-65
2022/03/04 05:58:18;;;;;;;27.33;15.05;;;2.60;99.90;;;;;;5162893;22;20016;-65
2022/03/04 06:00:19;;;;;;;29.92;15.68;;;2.70;99.90;;;;;;5161649;22;20078;-65
2022/03/04 06:02:20;;;;;;;28.58;14.85;;;2.70;99.90;;;;;;5161797;22;20083;-65
2022/03/04 06:04:20;;;;;;;26.65;14.50;;;2.80;99.90;;;;;;5158841;23;20028;-65
2022/03/04 06:06:21;;;;;;;26.90;14.38;;;2.80;99.90;;;;;;5161491;22;20035;-65
2022/03/04 06:08:22;;;;;;;30.92;15.35;;;2.90;99.90;;;;;;5162713;22;20008;-65
2022/03/04 06:10:22;;;;;;;29.90;15.50;;;2.90;99.90;;;;;;5158752;23;20483;-65
2022/03/04 06:12:23;;;;;;;28.45;14.60;;;3.00;99.90;;;;;;5162393;22;20065;-65
2022/03/04 06:14:23;;;;;;;30.77;16.08;;;3.00;99.90;;;;;;5160148;23;20016;-65
2022/03/04 06:16:24;;;;;;;29.10;15.85;;;3.10;99.90;;;;;;5161559;22;20012;-65
2022/03/04 06:18:25;;;;;;;31.00;16.65;;;3.00;99.90;;;;;;5159726;23;20042;-65
2022/03/04 06:20:25;;;;;;;35.00;17.90;;;3.00;99.90;;;;;;5161570;22;20023;-65
2022/03/04 06:22:26;;;;;;;33.72;17.52;;;2.80;99.90;;;;;;5160031;22;20023;-65
2022/03/04 06:24:27;;;;;;;34.03;19.33;;;2.80;99.90;;;;;;5162624;22;20097;-65
2022/03/04 06:26:27;;;;;;;32.00;18.00;;;2.60;99.90;;;;;;5160869;22;20070;-65
2022/03/04 06:28:28;;;;;;;33.20;18.02;;;2.40;99.90;;;;;;5161938;22;20012;-65
2022/03/04 06:30:32;;;;;;;27.17;15.70;;;2.40;99.90;;;;;;5160825;22;20027;-65
2022/03/04 06:32:33;;;;;;;30.48;16.60;;;2.50;99.90;;;;;;5161500;22;20371;-65
2022/03/04 06:34:34;;;;;;;28.35;15.63;;;2.40;99.90;;;;;;5161607;22;20020;-65
2022/03/04 06:36:35;;;;;;;32.08;16.52;;;2.40;99.90;;;;;;5146429;22;20012;-65
2022/03/04 06:38:41;;;;;;;30.85;16.60;;;2.40;99.90;;;;;;5160466;22;20039;-65
2022/03/04 06:40:42;;;;;;;30.65;17.10;;;2.50;99.90;;;;;;5159945;22;20000;-65
2022/03/04 06:42:45;;;;;;;32.03;16.90;;;2.50;99.90;;;;;;5162981;22;20012;-67
2022/03/04 06:44:45;;;;;;;33.10;16.45;;;2.50;99.90;;;;;;5158975;23;20008;-64
2022/03/04 06:46:46;;;;;;;34.83;18.40;;;2.50;99.90;;;;;;5161439;22;20008;-65
2022/03/04 06:48:46;;;;;;;34.95;18.80;;;2.30;99.90;;;;;;5161773;22;20341;-65
2022/03/04 06:50:49;;;;;;;41.25;17.90;;;2.20;99.90;;;;;;5161900;22;20012;-64
2022/03/04 06:52:51;;;;;;;37.22;19.02;;;2.10;99.90;;;;;;5161632;22;20026;-64
2022/03/04 06:54:51;;;;;;;36.95;19.08;;;2.00;99.90;;;;;;5161613;22;20467;-64
2022/03/04 06:56:52;;;;;;;35.35;17.98;;;2.00;99.90;;;;;;5161056;22;20008;-64
2022/03/04 06:58:53;;;;;;;39.33;18.40;;;1.90;99.90;;;;;;5162430;22;20016;-65
2022/03/04 07:00:53;;;;;;;33.63;17.83;;;2.00;99.90;;;;;;5158494;23;20500;-64
2022/03/04 07:02:54;;;;;;;38.95;17.63;;;1.90;99.90;;;;;;5161945;22;20491;-65
2022/03/04 07:04:55;;;;;;;32.75;17.40;;;2.10;99.90;;;;;;5161909;22;20447;-65
2022/03/04 07:06:55;;;;;;;30.30;16.67;;;2.30;99.90;;;;;;5160770;22;20012;-64
2022/03/04 07:08:56;;;;;;;35.15;18.20;;;2.50;99.90;;;;;;5161863;22;20013;-65
2022/03/04 07:10:56;;;;;;;34.80;18.50;;;2.70;99.90;;;;;;5160920;22;20122;-64
2022/03/04 07:12:57;;;;;;;37.17;18.10;;;2.90;99.90;;;;;;5161511;22;20023;-65
2022/03/04 07:14:57;;;;;;;41.20;19.73;;;3.00;99.90;;;;;;5162028;22;20415;-65
2022/03/04 07:16:58;;;;;;;37.42;19.95;;;3.20;99.90;;;;;;5160018;22;20012;-65
2022/03/04 07:18:59;;;;;;;38.33;19.92;;;3.30;99.90;;;;;;5159622;22;20023;-65
2022/03/04 07:20:59;;;;;;;40.05;19.98;;;3.40;99.90;;;;;;5160442;22;20013;-64
2022/03/04 07:23:00;;;;;;;37.85;19.77;;;3.50;99.90;;;;;;5161993;22;20008;-65
2022/03/04 07:25:03;;;;;;;37.83;19.00;;;3.60;99.90;;;;;;5161140;22;20018;-64
2022/03/04 07:27:03;;;;;;;;;;;3.70;99.90;;;;;;5161835;22;20044;-64
2022/03/04 07:29:04;;;;;;;33.15;18.40;;;3.90;99.90;;;;;;5162271;22;20386;-65
2022/03/04 07:31:05;;;;;;;34.88;19.27;;;4.20;99.90;;;;;;5160213;22;20012;-65
2022/03/04 07:33:05;;;;;;;36.25;19.77;;;4.40;99.90;;;;;;5161224;22;20008;-64
2022/03/04 07:35:08;;;;;;;35.67;18.95;;;4.40;99.90;;;;;;5160577;22;20027;-67
2022/03/04 07:37:08;;;;;;;35.17;18.80;;;4.60;99.90;;;;;;5161302;22;20070;-65
2022/03/04 07:39:09;;;;;;;31.48;17.40;;;4.70;99.90;;;;;;5161159;22;20008;-65
2022/03/04 07:41:09;;;;;;;37.53;19.20;;;4.80;99.90;;;;;;5155540;22;20012;-65
2022/03/04 07:43:10;;;;;;;33.13;16.98;;;5.00;99.90;;;;;;5162375;22;20082;-65
2022/03/04 07:45:12;;;;;;;33.67;18.67;;;5.20;99.90;;;;;;5159646;22;20086;-66
2022/03/04 07:47:12;;;;;;;31.53;17.53;;;5.60;99.90;;;;;;5158892;22;20016;-64
2022/03/04 07:49:13;;;;;;;31.00;16.45;;;6.10;99.90;;;;;;5161781;22;20352;-65
2022/03/04 07:51:14;;;;;;;28.00;16.58;;;6.10;99.90;;;;;;5161500;22;20004;-65
2022/03/04 07:53:15;;;;;;;28.30;15.75;;;6.50;99.90;;;;;;5160934;22;20017;-64
2022/03/04 07:55:17;;;;;;;30.65;17.17;;;6.80;99.90;;;;;;5159883;22;20432;-65
2022/03/04 07:57:17;;;;;;;30.08;16.65;;;6.70;99.90;;;;;;5162302;22;20061;-65
2022/03/04 07:59:19;;;;;;;31.10;17.67;;;6.90;99.90;;;;;;5161100;22;20440;-64
2022/03/04 08:01:20;;;;;;;26.03;15.63;;;7.20;99.90;;;;;;5161047;22;20038;-65
2022/03/04 08:03:20;;;;;;;32.83;18.35;;;7.40;99.90;;;;;;5162109;22;20277;-65
2022/03/04 08:05:21;;;;;;;29.52;16.83;;;7.10;99.90;;;;;;5160689;22;20011;-65
2022/03/04 08:07:22;;;;;;;30.60;17.65;;;7.30;99.90;;;;;;5161779;22;20095;-65
2022/03/04 08:09:22;;;;;;;28.02;16.90;;;7.30;99.90;;;;;;5161607;22;20472;-65
2022/03/04 08:11:23;;;;;;;30.92;17.10;;;7.30;99.90;;;;;;5159870;22;20008;-65
2022/03/04 08:13:24;;;;;;;31.90;17.20;;;7.50;99.90;;;;;;5161485;22;20013;-65
2022/03/04 08:15:24;;;;;;;29.88;17.30;;;7.80;99.90;;;;;;5159924;22;20024;-65
2022/03/04 08:17:26;;;;;;;31.00;18.60;;;7.90;99.90;;;;;;5161065;22;20499;-65
2022/03/04 08:19:27;;;;;;;27.60;16.80;;;7.90;99.90;;;;;;5159301;23;20044;-65
2022/03/04 08:21:27;;;;;;;29.88;17.33;;;8.10;99.90;;;;;;5160492;22;20088;-65
2022/03/04 08:23:29;;;;;;;35.75;18.58;;;8.20;99.90;;;;;;5161307;22;20008;-65
2022/03/04 08:25:30;;;;;;;27.15;15.73;;;8.40;99.90;;;;;;5160583;22;20020;-65
2022/03/04 08:27:30;;;;;;;27.98;16.17;;;8.70;99.90;;;;;;5161000;22;20026;-65
2022/03/04 08:29:31;;;;;;;28.05;16.33;;;9.20;99.90;;;;;;5161225;22;20018;-65
2022/03/04 08:31:32;;;;;;;31.63;15.85;;;9.40;99.90;;;;;;5160267;22;20020;-65
2022/03/04 08:33:32;;;;;;;22.55;13.75;;;9.90;98.40;;;;;;5161037;22;20008;-65
2022/03/04 08:35:33;;;;;;;23.17;14.77;;;10.40;98.90;;;;;;5160376;22;20008;-65
2022/03/04 08:37:34;;;;;;;26.63;15.05;;;11.00;99.00;;;;;;5161786;22;20015;-65
2022/03/04 08:39:34;;;;;;;24.15;15.15;;;11.10;92.60;;;;;;5156368;22;20016;-65
2022/03/04 08:41:35;;;;;;;21.35;14.23;;;11.40;83.90;;;;;;5153849;22;20057;-66
2022/03/04 08:43:36;;;;;;;22.08;13.63;;;11.70;88.30;;;;;;5153730;22;20005;-65
2022/03/04 08:45:37;;;;;;;24.30;13.60;;;11.80;90.00;;;;;;5159937;22;20062;-65
2022/03/04 08:47:38;;;;;;;23.50;14.68;;;12.10;82.20;;;;;;5160166;22;20008;-65
2022/03/04 08:49:39;;;;;;;22.95;14.85;;;12.20;81.80;;;;;;5159422;23;20399;-65
2022/03/04 08:51:41;;;;;;;22.92;13.90;;;11.90;73.70;;;;;;5158786;22;20486;-66
2022/03/04 08:53:41;;;;;;;27.63;15.43;;;12.20;80.10;;;;;;5160809;22;20008;-66
2022/03/04 08:55:44;;;;;;;22.15;14.20;;;12.20;77.70;;;;;;5161483;22;20014;-65
2022/03/04 08:57:46;;;;;;;25.40;14.38;;;12.00;75.70;;;;;;5158559;23;20015;-66
2022/03/04 08:59:47;;;;;;;20.83;13.88;;;11.90;76.20;;;;;;5160596;22;20031;-66
2022/03/04 09:01:48;;;;;;;25.80;15.32;;;11.90;80.40;;;;;;5160785;22;20020;-65
2022/03/04 09:03:48;;;;;;;26.20;15.45;;;11.70;78.30;;;;;;5159417;23;20087;-65
2022/03/04 09:05:49;;;;;;;26.92;15.02;;;11.80;79.70;;;;;;5162506;22;20079;-66
2022/03/04 09:07:49;;;;;;;25.25;15.40;;;11.80;74.60;;;;;;5162560;22;20075;-65
2022/03/04 09:09:50;;;;;;;23.75;14.32;;;11.60;75.60;;;;;;5163464;22;20359;-65
2022/03/04 09:11:50;;;;;;;24.50;14.60;;;11.70;83.80;;;;;;5158609;23;20336;-65
2022/03/04 09:13:51;;;;;;;24.90;15.32;;;11.70;82.10;;;;;;5159590;23;20534;-65
2022/03/04 09:15:52;;;;;;;26.63;15.25;;;11.90;81.60;;;;;;5161080;22;20005;-65
2022/03/04 09:17:53;;;;;;;27.98;14.55;;;11.90;77.40;;;;;;5162276;22;20043;-65
2022/03/04 09:19:53;;;;;;;25.63;16.58;;;11.90;75.90;;;;;;5162620;22;20043;-65
2022/03/04 09:21:54;;;;;;;24.73;16.02;;;11.50;69.10;;;;;;5161779;22;20440;-65
2022/03/04 09:23:54;;;;;;;26.23;15.95;;;11.30;69.70;;;;;;5162437;22;20019;-65
2022/03/04 09:25:55;;;;;;;26.48;16.50;;;11.30;71.40;;;;;;5161002;22;20004;-65
2022/03/04 09:27:56;;;;;;;26.45;16.30;;;11.30;73.10;;;;;;5162950;22;20336;-65
2022/03/04 09:29:56;;;;;;;26.63;17.33;;;11.10;71.60;;;;;;5162990;22;20027;-65
2022/03/04 09:31:57;;;;;;;27.00;17.13;;;10.90;71.60;;;;;;5161142;22;20091;-65
2022/03/04 09:33:58;;;;;;;28.05;17.25;;;10.70;70.80;;;;;;5162038;22;20016;-65
2022/03/04 09:36:00;;;;;;;26.48;16.98;;;10.70;74.40;;;;;;5160432;22;20360;-64
2022/03/04 09:38:01;;;;;;;;;;;10.70;73.70;;;;;;5135517;23;20449;-65
2022/03/04 09:40:06;;;;;;;25.50;16.52;;;10.80;73.30;;;;;;5161925;22;19953;-65
2022/03/04 09:42:07;;;;;;;27.85;15.98;;;10.80;74.50;;;;;;5160964;22;20031;-64
2022/03/04 09:44:08;;;;;;;27.27;17.15;;;10.90;77.50;;;;;;5162357;22;20016;-65
2022/03/04 09:46:08;;;;;;;27.52;16.77;;;10.90;77.40;;;;;;5160234;22;20028;-64
2022/03/04 09:48:12;;;;;;;27.52;16.17;;;10.90;76.10;;;;;;5162324;22;20428;-64
2022/03/04 09:50:16;;;;;;;28.25;16.63;;;10.90;75.00;;;;;;5161005;22;20016;-64
2022/03/04 09:52:17;;;;;;;26.58;17.58;;;10.90;73.50;;;;;;5162480;22;20016;-64
2022/03/04 09:54:18;;;;;;;26.17;16.73;;;10.90;75.50;;;;;;5162942;22;20028;-64
2022/03/04 09:56:20;;;;;;;27.63;16.73;;;11.00;80.50;;;;;;5160934;22;20008;-64
2022/03/04 09:58:20;;;;;;;27.85;17.15;;;11.00;77.30;;;;;;5162807;22;20012;-64
2022/03/04 10:00:22;;;;;;;27.25;17.83;;;11.00;72.10;;;;;;5161236;22;20028;-64
2022/03/04 10:02:25;;;;;;;27.45;16.58;;;10.80;72.50;;;;;;5160151;23;20016;-64
2022/03/04 10:04:27;;;;;;;26.95;16.48;;;10.80;72.90;;;;;;5162414;22;20012;-64
2022/03/04 10:06:27;;;;;;;23.90;15.80;;;10.80;72.80;;;;;;5160324;22;20055;-64
2022/03/04 10:08:28;;;;;;;25.70;16.52;;;11.00;75.20;;;;;;5161741;22;20231;-64
2022/03/04 10:10:28;;;;;;;25.35;15.50;;;11.00;73.70;;;;;;5161407;22;20012;-64
2022/03/04 10:12:29;;;;;;;29.83;18.20;;;11.00;75.10;;;;;;5161793;22;20501;-64
2022/03/04 10:14:30;;;;;;;25.67;17.33;;;10.70;72.10;;;;;;5161872;22;20436;-64
2022/03/04 10:16:33;;;;;;;31.35;17.80;;;10.70;72.60;;;;;;5160832;22;23208;-64
2022/03/04 10:18:34;;;;;;;27.63;16.88;;;10.70;73.30;;;;;;5160809;22;20012;-65
2022/03/04 10:20:42;;;;;;;27.42;16.33;;;10.70;76.30;;;;;;5161433;22;20011;-65